sensor_id;sensor_type;location;lat;lon;timestamp;pressure;altitude;pressure_sealevel;temperature;humidity
78584;BME280;67880;46.082;18.234;2023-08-17T00:00:01;99770.09;;;23.48;58.93
78584;BME280;67880;46.082;18.234;2023-08-17T00:00:50;99766.41;;;23.42;59.85
78584;BME280;67880;46.082;18.234;2023-08-17T00:01:59;99762.38;;;23.45;59.38
78584;BME280;67880;46.082;18.234;2023-08-17T00:02:38;99766.16;;;23.44;59.56
78584;BME280;67880;46.082;18.234;2023-08-17T00:03:12;99766.41;;;23.42;59.48
78584;BME280;67880;46.082;18.234;2023-08-17T00:04:00;99762.59;;;23.43;59.34
78584;BME280;67880;46.082;18.234;2023-08-17T00:04:41;99763.91;;;23.41;59.82
78584;BME280;67880;46.082;18.234;2023-08-17T00:05:22;99764.38;;;23.38;60.30
78584;BME280;67880;46.082;18.234;2023-08-17T00:06:12;99757.25;;;23.37;59.94
78584;BME280;67880;46.082;18.234;2023-08-17T00:07:23;99756.78;;;23.40;59.68
78584;BME280;67880;46.082;18.234;2023-08-17T00:09:09;99761.91;;;23.36;60.11
78584;BME280;67880;46.082;18.234;2023-08-17T00:10:32;99758.56;;;23.34;59.90
78584;BME280;67880;46.082;18.234;2023-08-17T00:11:10;99759.16;;;23.36;60.26
78584;BME280;67880;46.082;18.234;2023-08-17T00:12:09;99752.25;;;23.34;60.32
78584;BME280;67880;46.082;18.234;2023-08-17T00:12:47;99758.81;;;23.33;60.28
78584;BME280;67880;46.082;18.234;2023-08-17T00:13:53;99757.63;;;23.29;60.24
78584;BME280;67880;46.082;18.234;2023-08-17T00:14:41;99755.47;;;23.31;60.54
78584;BME280;67880;46.082;18.234;2023-08-17T00:16:06;99753.56;;;23.31;60.07
78584;BME280;67880;46.082;18.234;2023-08-17T00:16:39;99759.03;;;23.31;60.16
78584;BME280;67880;46.082;18.234;2023-08-17T00:17:59;99754.53;;;23.25;60.09
78584;BME280;67880;46.082;18.234;2023-08-17T00:18:48;99751.56;;;23.27;60.48
78584;BME280;67880;46.082;18.234;2023-08-17T00:20:37;99755.97;;;23.28;60.09
78584;BME280;67880;46.082;18.234;2023-08-17T00:22:44;99752.97;;;23.29;60.46
78584;BME280;67880;46.082;18.234;2023-08-17T00:23:53;99755.50;;;23.19;60.22
78584;BME280;67880;46.082;18.234;2023-08-17T00:24:47;99757.16;;;23.20;59.96
78584;BME280;67880;46.082;18.234;2023-08-17T00:25:52;99751.31;;;23.16;60.51
78584;BME280;67880;46.082;18.234;2023-08-17T00:26:39;99754.88;;;23.17;61.30
78584;BME280;67880;46.082;18.234;2023-08-17T00:27:15;99756.22;;;23.14;60.74
78584;BME280;67880;46.082;18.234;2023-08-17T00:27:54;99752.97;;;23.17;60.82
78584;BME280;67880;46.082;18.234;2023-08-17T00:28:41;99762.28;;;23.16;60.93
78584;BME280;67880;46.082;18.234;2023-08-17T00:29:32;99752.66;;;23.14;60.82
78584;BME280;67880;46.082;18.234;2023-08-17T00:30:10;99758.81;;;23.09;60.50
78584;BME280;67880;46.082;18.234;2023-08-17T00:31:08;99746.34;;;23.13;61.16
78584;BME280;67880;46.082;18.234;2023-08-17T00:31:55;99752.41;;;23.15;61.04
78584;BME280;67880;46.082;18.234;2023-08-17T00:33:04;99744.44;;;23.14;61.10
78584;BME280;67880;46.082;18.234;2023-08-17T00:34:05;99745.97;;;23.10;61.02
78584;BME280;67880;46.082;18.234;2023-08-17T00:35:05;99741.06;;;23.12;61.61
78584;BME280;67880;46.082;18.234;2023-08-17T00:36:59;99747.28;;;23.07;61.70
78584;BME280;67880;46.082;18.234;2023-08-17T00:37:56;99747.03;;;23.09;61.02
78584;BME280;67880;46.082;18.234;2023-08-17T00:38:53;99742.16;;;23.11;61.23
78584;BME280;67880;46.082;18.234;2023-08-17T00:39:58;99752.03;;;23.12;62.12
78584;BME280;67880;46.082;18.234;2023-08-17T00:41:20;99743.59;;;23.13;61.89
78584;BME280;67880;46.082;18.234;2023-08-17T00:42:06;99740.72;;;23.08;61.18
78584;BME280;67880;46.082;18.234;2023-08-17T00:42:46;99753.34;;;23.09;62.18
78584;BME280;67880;46.082;18.234;2023-08-17T00:43:24;99751.09;;;23.06;62.37
78584;BME280;67880;46.082;18.234;2023-08-17T00:44:01;99747.75;;;23.04;61.56
78584;BME280;67880;46.082;18.234;2023-08-17T00:44:36;99742.28;;;23.04;62.46
78584;BME280;67880;46.082;18.234;2023-08-17T00:45:12;99744.28;;;22.97;62.01
78584;BME280;67880;46.082;18.234;2023-08-17T00:45:51;99743.22;;;22.98;61.86
78584;BME280;67880;46.082;18.234;2023-08-17T00:46:40;99754.53;;;23.02;61.76
78584;BME280;67880;46.082;18.234;2023-08-17T00:47:16;99744.88;;;22.99;62.45
78584;BME280;67880;46.082;18.234;2023-08-17T00:48:10;99740.97;;;22.95;62.62
78584;BME280;67880;46.082;18.234;2023-08-17T00:49:05;99744.78;;;22.94;62.69
78584;BME280;67880;46.082;18.234;2023-08-17T00:50:20;99732.75;;;22.95;62.39
78584;BME280;67880;46.082;18.234;2023-08-17T00:50:57;99739.06;;;22.95;62.49
78584;BME280;67880;46.082;18.234;2023-08-17T00:52:01;99734.06;;;22.92;62.58
78584;BME280;67880;46.082;18.234;2023-08-17T00:53:09;99738.69;;;22.92;62.27
78584;BME280;67880;46.082;18.234;2023-08-17T00:54:05;99742.63;;;22.96;63.08
78584;BME280;67880;46.082;18.234;2023-08-17T00:54:42;99741.81;;;22.95;61.99
78584;BME280;67880;46.082;18.234;2023-08-17T00:55:32;99744.16;;;22.92;62.91
78584;BME280;67880;46.082;18.234;2023-08-17T00:56:13;99735.97;;;22.92;62.48
78584;BME280;67880;46.082;18.234;2023-08-17T00:56:53;99735.75;;;22.93;63.34
78584;BME280;67880;46.082;18.234;2023-08-17T00:57:36;99737.66;;;22.93;62.75
78584;BME280;67880;46.082;18.234;2023-08-17T00:58:13;99733.22;;;22.92;63.67
78584;BME280;67880;46.082;18.234;2023-08-17T00:59:02;99736.56;;;22.94;63.46
78584;BME280;67880;46.082;18.234;2023-08-17T00:59:56;99739.91;;;22.96;62.90
78584;BME280;67880;46.082;18.234;2023-08-17T01:00:45;99738.69;;;22.92;62.82
78584;BME280;67880;46.082;18.234;2023-08-17T01:01:22;99734.91;;;22.93;62.85
78584;BME280;67880;46.082;18.234;2023-08-17T01:01:58;99732.88;;;22.88;63.73
78584;BME280;67880;46.082;18.234;2023-08-17T01:02:49;99734.53;;;22.89;63.44
78584;BME280;67880;46.082;18.234;2023-08-17T01:03:58;99738.34;;;22.88;62.88
78584;BME280;67880;46.082;18.234;2023-08-17T01:04:57;99735.03;;;22.86;62.85
78584;BME280;67880;46.082;18.234;2023-08-17T01:05:39;99733.31;;;22.85;63.67
78584;BME280;67880;46.082;18.234;2023-08-17T01:06:29;99737.13;;;22.84;63.26
78584;BME280;67880;46.082;18.234;2023-08-17T01:07:04;99737.94;;;22.85;63.58
78584;BME280;67880;46.082;18.234;2023-08-17T01:07:44;99738.31;;;22.77;63.45
78584;BME280;67880;46.082;18.234;2023-08-17T01:08:31;99736.91;;;22.74;64.16
78584;BME280;67880;46.082;18.234;2023-08-17T01:09:51;99733.19;;;22.68;63.76
78584;BME280;67880;46.082;18.234;2023-08-17T01:16:11;99738.19;;;22.71;64.54
78584;BME280;67880;46.082;18.234;2023-08-17T01:19:46;99753.06;;;22.64;64.33
78584;BME280;67880;46.082;18.234;2023-08-17T01:20:59;99742.81;;;22.59;64.50
78584;BME280;67880;46.082;18.234;2023-08-17T01:22:30;99745.44;;;22.54;65.18
78584;BME280;67880;46.082;18.234;2023-08-17T01:24:13;99743.66;;;22.48;65.70
78584;BME280;67880;46.082;18.234;2023-08-17T01:24:50;99750.63;;;22.44;65.76
78584;BME280;67880;46.082;18.234;2023-08-17T01:25:55;99739.31;;;22.40;65.39
78584;BME280;67880;46.082;18.234;2023-08-17T01:26:44;99740.78;;;22.43;65.41
78584;BME280;67880;46.082;18.234;2023-08-17T01:28:07;99741.22;;;22.40;65.80
78584;BME280;67880;46.082;18.234;2023-08-17T01:29:47;99739.81;;;22.37;65.67
78584;BME280;67880;46.082;18.234;2023-08-17T01:31:11;99751.44;;;22.33;66.30
78584;BME280;67880;46.082;18.234;2023-08-17T01:32:25;99743.34;;;22.26;66.59
78584;BME280;67880;46.082;18.234;2023-08-17T01:33:10;99740.84;;;22.25;66.96
78584;BME280;67880;46.082;18.234;2023-08-17T01:34:12;99749.50;;;22.22;66.76
78584;BME280;67880;46.082;18.234;2023-08-17T01:37:01;99745.81;;;22.16;66.13
78584;BME280;67880;46.082;18.234;2023-08-17T01:38:12;99744.75;;;22.17;66.41
78584;BME280;67880;46.082;18.234;2023-08-17T01:40:03;99743.28;;;22.14;66.34
78584;BME280;67880;46.082;18.234;2023-08-17T01:41:40;99741.19;;;22.16;66.43
78584;BME280;67880;46.082;18.234;2023-08-17T01:42:50;99746.50;;;22.11;66.98
78584;BME280;67880;46.082;18.234;2023-08-17T01:43:41;99743.19;;;22.09;66.37
78584;BME280;67880;46.082;18.234;2023-08-17T01:44:35;99750.06;;;22.12;67.08
78584;BME280;67880;46.082;18.234;2023-08-17T01:45:11;99746.25;;;22.13;66.61
78584;BME280;67880;46.082;18.234;2023-08-17T01:46:03;99750.31;;;22.10;67.40
78584;BME280;67880;46.082;18.234;2023-08-17T01:46:44;99745.69;;;22.11;67.05
78584;BME280;67880;46.082;18.234;2023-08-17T01:47:22;99744.19;;;22.08;67.10
78584;BME280;67880;46.082;18.234;2023-08-17T01:48:05;99750.31;;;22.10;67.61
78584;BME280;67880;46.082;18.234;2023-08-17T01:49:04;99752.72;;;22.00;66.63
78584;BME280;67880;46.082;18.234;2023-08-17T01:49:56;99748.09;;;22.01;67.52
78584;BME280;67880;46.082;18.234;2023-08-17T01:50:54;99738.81;;;22.02;66.97
78584;BME280;67880;46.082;18.234;2023-08-17T01:52:14;99745.97;;;22.03;67.64
78584;BME280;67880;46.082;18.234;2023-08-17T01:54:29;99746.06;;;21.96;67.92
78584;BME280;67880;46.082;18.234;2023-08-17T01:55:21;99737.72;;;21.91;68.02
78584;BME280;67880;46.082;18.234;2023-08-17T01:56:07;99741.88;;;21.94;67.53
78584;BME280;67880;46.082;18.234;2023-08-17T01:56:58;99748.81;;;21.96;67.71
78584;BME280;67880;46.082;18.234;2023-08-17T01:57:52;99742.34;;;21.90;68.13
78584;BME280;67880;46.082;18.234;2023-08-17T01:58:40;99748.41;;;21.93;68.11
78584;BME280;67880;46.082;18.234;2023-08-17T02:00:18;99746.00;;;21.84;68.90
78584;BME280;67880;46.082;18.234;2023-08-17T02:01:00;99745.28;;;21.89;68.67
78584;BME280;67880;46.082;18.234;2023-08-17T02:01:56;99744.63;;;21.94;68.11
78584;BME280;67880;46.082;18.234;2023-08-17T02:03:11;99749.25;;;21.93;67.71
78584;BME280;67880;46.082;18.234;2023-08-17T02:04:05;99749.25;;;21.93;67.50
78584;BME280;67880;46.082;18.234;2023-08-17T02:05:36;99747.53;;;21.80;68.50
78584;BME280;67880;46.082;18.234;2023-08-17T02:06:53;99739.91;;;21.82;68.16
78584;BME280;67880;46.082;18.234;2023-08-17T02:07:29;99747.75;;;21.79;69.17
78584;BME280;67880;46.082;18.234;2023-08-17T02:08:38;99743.47;;;21.71;68.97
78584;BME280;67880;46.082;18.234;2023-08-17T02:09:48;99747.75;;;21.79;69.10
78584;BME280;67880;46.082;18.234;2023-08-17T02:10:36;99738.09;;;21.76;68.98
78584;BME280;67880;46.082;18.234;2023-08-17T02:11:58;99742.75;;;21.76;68.18
78584;BME280;67880;46.082;18.234;2023-08-17T02:12:50;99737.91;;;21.78;68.95
78584;BME280;67880;46.082;18.234;2023-08-17T02:13:59;99740.00;;;21.76;69.09
78584;BME280;67880;46.082;18.234;2023-08-17T02:16:28;99739.13;;;21.63;68.79
78584;BME280;67880;46.082;18.234;2023-08-17T02:19:11;99740.50;;;21.54;69.57
78584;BME280;67880;46.082;18.234;2023-08-17T02:21:07;99739.75;;;21.47;69.67
78584;BME280;67880;46.082;18.234;2023-08-17T02:22:37;99738.91;;;21.47;69.70
78584;BME280;67880;46.082;18.234;2023-08-17T02:23:17;99739.91;;;21.52;70.04
78584;BME280;67880;46.082;18.234;2023-08-17T02:24:12;99736.09;;;21.53;69.93
78584;BME280;67880;46.082;18.234;2023-08-17T02:26:27;99736.94;;;21.35;70.93
78584;BME280;67880;46.082;18.234;2023-08-17T02:27:54;99742.75;;;21.21;71.52
78584;BME280;67880;46.082;18.234;2023-08-17T02:29:01;99740.25;;;21.19;71.13
78584;BME280;67880;46.082;18.234;2023-08-17T02:29:36;99739.38;;;21.19;71.91
78584;BME280;67880;46.082;18.234;2023-08-17T02:30:25;99739.38;;;21.19;71.60
78584;BME280;67880;46.082;18.234;2023-08-17T02:31:02;99738.69;;;21.05;72.02
78584;BME280;67880;46.082;18.234;2023-08-17T02:32:30;99746.22;;;21.09;72.08
78584;BME280;67880;46.082;18.234;2023-08-17T02:33:20;99741.81;;;21.08;72.10
78584;BME280;67880;46.082;18.234;2023-08-17T02:34:25;99745.88;;;20.99;73.17
78584;BME280;67880;46.082;18.234;2023-08-17T02:35:50;99752.81;;;21.02;72.66
78584;BME280;67880;46.082;18.234;2023-08-17T02:36:27;99758.09;;;20.97;73.35
78584;BME280;67880;46.082;18.234;2023-08-17T02:37:03;99744.03;;;21.00;73.20
78584;BME280;67880;46.082;18.234;2023-08-17T02:38:04;99756.66;;;20.94;74.09
78584;BME280;67880;46.082;18.234;2023-08-17T02:39:12;99751.03;;;20.89;74.79
78584;BME280;67880;46.082;18.234;2023-08-17T02:39:47;99755.22;;;20.92;74.52
78584;BME280;67880;46.082;18.234;2023-08-17T02:41:10;99751.41;;;20.93;74.92
78584;BME280;67880;46.082;18.234;2023-08-17T02:42:39;99742.78;;;20.96;74.13
78584;BME280;67880;46.082;18.234;2023-08-17T02:43:14;99749.69;;;20.98;74.95
78584;BME280;67880;46.082;18.234;2023-08-17T02:44:21;99747.66;;;20.94;75.05
78584;BME280;67880;46.082;18.234;2023-08-17T02:45:10;99747.72;;;20.87;75.88
78584;BME280;67880;46.082;18.234;2023-08-17T02:45:46;99744.34;;;20.85;75.90
78584;BME280;67880;46.082;18.234;2023-08-17T02:46:23;99749.63;;;20.87;76.29
78584;BME280;67880;46.082;18.234;2023-08-17T02:47:15;99745.41;;;20.84;76.21
78584;BME280;67880;46.082;18.234;2023-08-17T02:48:14;99744.59;;;20.83;75.68
78584;BME280;67880;46.082;18.234;2023-08-17T02:48:52;99745.81;;;20.88;76.68
78584;BME280;67880;46.082;18.234;2023-08-17T02:49:53;99741.84;;;20.83;76.39
78584;BME280;67880;46.082;18.234;2023-08-17T02:51:02;99740.19;;;20.82;76.92
78584;BME280;67880;46.082;18.234;2023-08-17T02:51:54;99746.03;;;20.86;77.02
78584;BME280;67880;46.082;18.234;2023-08-17T02:52:44;99748.38;;;20.82;76.95
78584;BME280;67880;46.082;18.234;2023-08-17T02:53:44;99753.22;;;20.80;77.30
78584;BME280;67880;46.082;18.234;2023-08-17T02:54:32;99745.88;;;20.81;78.17
78584;BME280;67880;46.082;18.234;2023-08-17T02:56:38;99753.28;;;20.74;78.18
78584;BME280;67880;46.082;18.234;2023-08-17T02:57:47;99750.09;;;20.77;78.28
78584;BME280;67880;46.082;18.234;2023-08-17T02:58:32;99751.00;;;20.71;79.01
78584;BME280;67880;46.082;18.234;2023-08-17T02:59:13;99748.94;;;20.66;78.86
78584;BME280;67880;46.082;18.234;2023-08-17T03:00:22;99750.44;;;20.62;79.96
78584;BME280;67880;46.082;18.234;2023-08-17T03:01:10;99750.00;;;20.65;79.65
78584;BME280;67880;46.082;18.234;2023-08-17T03:01:45;99747.03;;;20.67;78.95
78584;BME280;67880;46.082;18.234;2023-08-17T03:02:18;99747.03;;;20.67;78.77
78584;BME280;67880;46.082;18.234;2023-08-17T03:03:10;99751.44;;;20.68;79.84
78584;BME280;67880;46.082;18.234;2023-08-17T03:03:57;99749.56;;;20.68;79.52
78584;BME280;67880;46.082;18.234;2023-08-17T03:05:11;99746.81;;;20.68;80.33
78584;BME280;67880;46.082;18.234;2023-08-17T03:07:04;99744.09;;;20.68;80.09
78584;BME280;67880;46.082;18.234;2023-08-17T03:07:46;99745.38;;;20.66;80.36
78584;BME280;67880;46.082;18.234;2023-08-17T03:09:36;99744.72;;;20.70;79.83
78584;BME280;67880;46.082;18.234;2023-08-17T03:11:13;99749.50;;;20.43;82.08
78584;BME280;67880;46.082;18.234;2023-08-17T03:12:56;99752.66;;;20.47;82.13
78584;BME280;67880;46.082;18.234;2023-08-17T03:13:39;99752.00;;;20.51;81.82
78584;BME280;67880;46.082;18.234;2023-08-17T03:14:30;99745.03;;;20.55;81.74
78584;BME280;67880;46.082;18.234;2023-08-17T03:15:13;99742.97;;;20.51;82.10
78584;BME280;67880;46.082;18.234;2023-08-17T03:15:54;99748.44;;;20.51;82.16
78584;BME280;67880;46.082;18.234;2023-08-17T03:16:49;99751.84;;;20.40;82.37
78584;BME280;67880;46.082;18.234;2023-08-17T03:17:38;99741.31;;;20.50;81.86
78584;BME280;67880;46.082;18.234;2023-08-17T03:19:01;99743.38;;;20.54;82.22
78584;BME280;67880;46.082;18.234;2023-08-17T03:20:27;99758.88;;;20.54;81.73
78584;BME280;67880;46.082;18.234;2023-08-17T03:22:07;99742.41;;;20.67;81.01
78584;BME280;67880;46.082;18.234;2023-08-17T03:22:58;99748.97;;;20.60;81.92
78584;BME280;67880;46.082;18.234;2023-08-17T03:24:27;99741.84;;;20.59;81.78
78584;BME280;67880;46.082;18.234;2023-08-17T03:25:08;99746.88;;;20.62;81.62
78584;BME280;67880;46.082;18.234;2023-08-17T03:25:53;99746.31;;;20.53;83.01
78584;BME280;67880;46.082;18.234;2023-08-17T03:26:25;99743.38;;;20.54;82.55
78584;BME280;67880;46.082;18.234;2023-08-17T03:27:01;99750.94;;;20.52;82.60
78584;BME280;67880;46.082;18.234;2023-08-17T03:27:39;99745.09;;;20.49;82.46
78584;BME280;67880;46.082;18.234;2023-08-17T03:29:20;99757.44;;;20.51;82.84
78584;BME280;67880;46.082;18.234;2023-08-17T16:00:00;99575.97;;;29.04;45.28
78584;BME280;67880;46.082;18.234;2023-08-17T16:00:39;99563.25;;;29.03;45.31
78584;BME280;67880;46.082;18.234;2023-08-17T16:01:51;99566.81;;;29.19;45.42
78584;BME280;67880;46.082;18.234;2023-08-17T16:03:19;99560.66;;;29.27;45.36
78584;BME280;67880;46.082;18.234;2023-08-17T16:05:16;99565.94;;;29.24;45.63
78584;BME280;67880;46.082;18.234;2023-08-17T16:06:43;99560.16;;;29.20;45.54
78584;BME280;67880;46.082;18.234;2023-08-17T16:08:31;99564.91;;;29.09;46.32
78584;BME280;67880;46.082;18.234;2023-08-17T16:10:30;99563.53;;;29.07;45.41
78584;BME280;67880;46.082;18.234;2023-08-17T16:12:08;99561.91;;;29.01;46.62
78584;BME280;67880;46.082;18.234;2023-08-17T16:13:05;99556.06;;;29.07;46.15
78584;BME280;67880;46.082;18.234;2023-08-17T16:13:51;99560.78;;;29.07;45.92
78584;BME280;67880;46.082;18.234;2023-08-17T16:14:57;99566.25;;;29.17;45.16
78584;BME280;67880;46.082;18.234;2023-08-17T16:15:46;99571.53;;;29.13;45.29
78584;BME280;67880;46.082;18.234;2023-08-17T16:17:11;99564.44;;;28.87;45.87
78584;BME280;67880;46.082;18.234;2023-08-17T16:17:51;99576.03;;;28.94;45.49
78584;BME280;67880;46.082;18.234;2023-08-17T16:18:24;99570.50;;;28.99;46.08
78584;BME280;67880;46.082;18.234;2023-08-17T16:19:10;99571.03;;;29.01;45.68
78584;BME280;67880;46.082;18.234;2023-08-17T16:20:37;99574.63;;;28.97;46.86
78584;BME280;67880;46.082;18.234;2023-08-17T16:21:13;99568.56;;;29.00;46.43
78584;BME280;67880;46.082;18.234;2023-08-17T16:21:59;99572.69;;;28.97;46.18
78584;BME280;67880;46.082;18.234;2023-08-17T16:23:13;99570.78;;;28.93;47.25
78584;BME280;67880;46.082;18.234;2023-08-17T16:25:18;99570.50;;;28.94;47.79
78584;BME280;67880;46.082;18.234;2023-08-17T16:26:24;99574.38;;;28.93;47.10
78584;BME280;67880;46.082;18.234;2023-08-17T16:26:57;99576.84;;;28.95;46.79
78584;BME280;67880;46.082;18.234;2023-08-17T16:27:43;99569.94;;;28.97;47.48
78584;BME280;67880;46.082;18.234;2023-08-17T16:30:11;99573.25;;;28.89;46.11
78584;BME280;67880;46.082;18.234;2023-08-17T16:31:25;99566.38;;;28.86;46.57
78584;BME280;67880;46.082;18.234;2023-08-17T16:32:39;99569.66;;;28.88;47.17
78584;BME280;67880;46.082;18.234;2023-08-17T16:33:48;99571.03;;;28.96;46.54
78584;BME280;67880;46.082;18.234;2023-08-17T16:34:28;99566.34;;;28.97;45.53
78584;BME280;67880;46.082;18.234;2023-08-17T16:35:05;99570.22;;;28.96;46.22
78584;BME280;67880;46.082;18.234;2023-08-17T16:36:18;99585.13;;;29.00;45.60
78584;BME280;67880;46.082;18.234;2023-08-17T16:37:07;99570.22;;;28.96;46.66
78584;BME280;67880;46.082;18.234;2023-08-17T16:38:08;99578.78;;;28.94;47.08
78584;BME280;67880;46.082;18.234;2023-08-17T16:39:21;99574.91;;;28.90;47.16
78584;BME280;67880;46.082;18.234;2023-08-17T16:40:12;99570.50;;;28.84;46.66
78584;BME280;67880;46.082;18.234;2023-08-17T16:41:08;99581.53;;;28.89;47.33
78584;BME280;67880;46.082;18.234;2023-08-17T16:41:58;99580.16;;;28.97;47.61
78584;BME280;67880;46.082;18.234;2023-08-17T16:43:20;99582.38;;;29.00;47.23
78584;BME280;67880;46.082;18.234;2023-08-17T16:44:08;99580.16;;;28.97;47.08
78584;BME280;67880;46.082;18.234;2023-08-17T16:45:08;99578.25;;;28.92;47.86
78584;BME280;67880;46.082;18.234;2023-08-17T16:46:27;99576.53;;;28.91;48.19
78584;BME280;67880;46.082;18.234;2023-08-17T16:47:13;99574.38;;;28.78;48.06
78584;BME280;67880;46.082;18.234;2023-08-17T16:50:06;99576.66;;;28.60;49.20
78584;BME280;67880;46.082;18.234;2023-08-17T16:51:02;99576.66;;;28.55;49.85
78584;BME280;67880;46.082;18.234;2023-08-17T16:51:50;99578.03;;;28.58;50.32
78584;BME280;67880;46.082;18.234;2023-08-17T16:52:54;99576.38;;;28.57;50.05
78584;BME280;67880;46.082;18.234;2023-08-17T16:53:57;99575.84;;;28.45;49.50
78584;BME280;67880;46.082;18.234;2023-08-17T16:55:40;99584.16;;;28.35;50.44
78584;BME280;67880;46.082;18.234;2023-08-17T16:57:55;99584.97;;;28.30;49.94
78584;BME280;67880;46.082;18.234;2023-08-17T16:58:49;99589.66;;;28.24;50.73
78584;BME280;67880;46.082;18.234;2023-08-17T17:00:50;99584.13;;;28.19;50.87
78584;BME280;67880;46.082;18.234;2023-08-17T17:01:38;99579.19;;;28.21;51.28
78584;BME280;67880;46.082;18.234;2023-08-17T17:02:34;99594.63;;;28.22;51.02
78584;BME280;67880;46.082;18.234;2023-08-17T17:05:04;99589.13;;;28.17;52.41
78584;BME280;67880;46.082;18.234;2023-08-17T17:05:50;99592.41;;;28.14;52.48
78584;BME280;67880;46.082;18.234;2023-08-17T17:06:57;99585.00;;;28.15;52.35
78584;BME280;67880;46.082;18.234;2023-08-17T17:08:07;99594.09;;;28.10;52.34
78584;BME280;67880;46.082;18.234;2023-08-17T17:09:24;99587.44;;;28.06;52.98
78584;BME280;67880;46.082;18.234;2023-08-17T17:10:38;99585.81;;;28.05;52.50
78584;BME280;67880;46.082;18.234;2023-08-17T17:11:48;99592.72;;;27.97;52.64
78584;BME280;67880;46.082;18.234;2023-08-17T17:12:50;99598.50;;;27.96;52.43
78584;BME280;67880;46.082;18.234;2023-08-17T17:14:17;99590.50;;;27.89;53.75
78584;BME280;67880;46.082;18.234;2023-08-17T17:15:27;99597.09;;;27.88;54.60
78584;BME280;67880;46.082;18.234;2023-08-17T17:16:28;99597.69;;;27.90;53.72
78584;BME280;67880;46.082;18.234;2023-08-17T17:17:54;99588.00;;;27.88;53.90
78584;BME280;67880;46.082;18.234;2023-08-17T17:19:18;99601.53;;;27.84;53.93
78584;BME280;67880;46.082;18.234;2023-08-17T17:21:18;99590.75;;;27.77;53.93
78584;BME280;67880;46.082;18.234;2023-08-17T17:22:53;99600.97;;;27.72;54.09
78584;BME280;67880;46.082;18.234;2023-08-17T17:24:29;99600.41;;;27.70;54.42
78584;BME280;67880;46.082;18.234;2023-08-17T17:25:20;99604.50;;;27.67;54.28
78584;BME280;67880;46.082;18.234;2023-08-17T17:26:27;99598.97;;;27.67;55.17
78584;BME280;67880;46.082;18.234;2023-08-17T17:28:10;99598.69;;;27.59;54.57
78584;BME280;67880;46.082;18.234;2023-08-17T17:28:47;99596.22;;;27.57;55.34
78584;BME280;67880;46.082;18.234;2023-08-17T17:29:42;99599.22;;;27.56;54.89
78584;BME280;67880;46.082;18.234;2023-08-17T17:31:34;99593.72;;;27.50;55.71
78584;BME280;67880;46.082;18.234;2023-08-17T17:33:13;99604.75;;;27.50;55.52
78584;BME280;67880;46.082;18.234;2023-08-17T17:34:06;99609.69;;;27.48;56.48
78584;BME280;67880;46.082;18.234;2023-08-17T17:35:51;99602.50;;;27.42;56.32
78584;BME280;67880;46.082;18.234;2023-08-17T17:36:45;99598.09;;;27.41;56.15
78584;BME280;67880;46.082;18.234;2023-08-17T17:37:47;99603.03;;;27.34;55.81
78584;BME280;67880;46.082;18.234;2023-08-17T17:39:01;99595.31;;;27.26;56.26
78584;BME280;67880;46.082;18.234;2023-08-17T17:40:13;99600.00;;;27.25;57.22
78584;BME280;67880;46.082;18.234;2023-08-17T17:41:51;99593.34;;;27.21;56.18
78584;BME280;67880;46.082;18.234;2023-08-17T17:43:55;99604.91;;;27.13;56.75
78584;BME280;67880;46.082;18.234;2023-08-17T17:45:18;99605.44;;;27.15;57.23
78584;BME280;67880;46.082;18.234;2023-08-17T17:46:33;99602.97;;;27.14;57.08
78584;BME280;67880;46.082;18.234;2023-08-17T17:48:36;99610.13;;;27.15;56.34
78584;BME280;67880;46.082;18.234;2023-08-17T17:51:11;99624.19;;;27.13;56.58
78584;BME280;67880;46.082;18.234;2023-08-17T17:52:23;99617.84;;;27.13;56.55
78584;BME280;67880;46.082;18.234;2023-08-17T17:53:58;99627.69;;;27.04;57.55
78584;BME280;67880;46.082;18.234;2023-08-17T17:55:10;99628.75;;;26.97;57.18
78584;BME280;67880;46.082;18.234;2023-08-17T17:56:37;99623.22;;;26.87;57.15
78584;BME280;67880;46.082;18.234;2023-08-17T17:58:40;99635.25;;;26.76;58.84
78584;BME280;67880;46.082;18.234;2023-08-17T18:00:27;99636.13;;;26.82;59.10
78584;BME280;67880;46.082;18.234;2023-08-17T18:01:05;99633.09;;;26.83;58.45
78584;BME280;67880;46.082;18.234;2023-08-17T18:01:50;99625.06;;;26.77;58.95
78584;BME280;67880;46.082;18.234;2023-08-17T18:02:44;99631.72;;;26.81;59.07
78584;BME280;67880;46.082;18.234;2023-08-17T18:04:13;99636.91;;;26.77;59.24
78584;BME280;67880;46.082;18.234;2023-08-17T18:05:32;99643.00;;;26.84;58.20
78584;BME280;67880;46.082;18.234;2023-08-17T18:07:03;99634.50;;;26.86;58.23
78584;BME280;67880;46.082;18.234;2023-08-17T18:08:54;99643.09;;;26.94;57.60
78584;BME280;67880;46.082;18.234;2023-08-17T18:10:10;99645.25;;;26.87;58.05
78584;BME280;67880;46.082;18.234;2023-08-17T18:11:00;99638.09;;;26.86;59.06
78584;BME280;67880;46.082;18.234;2023-08-17T18:11:49;99638.56;;;26.78;58.39
78584;BME280;67880;46.082;18.234;2023-08-17T18:12:29;99640.72;;;26.71;58.51
78584;BME280;67880;46.082;18.234;2023-08-17T18:13:51;99641.00;;;26.69;58.86
78584;BME280;67880;46.082;18.234;2023-08-17T18:15:03;99638.81;;;26.71;59.09
78584;BME280;67880;46.082;18.234;2023-08-17T18:16:45;99634.38;;;26.70;58.79
78584;BME280;67880;46.082;18.234;2023-08-17T18:18:00;99633.47;;;26.55;59.77
78584;BME280;67880;46.082;18.234;2023-08-17T18:18:39;99638.94;;;26.50;59.70
78584;BME280;67880;46.082;18.234;2023-08-17T18:19:34;99640.81;;;26.44;59.90
78584;BME280;67880;46.082;18.234;2023-08-17T18:20:19;99636.41;;;26.43;59.58
78584;BME280;67880;46.082;18.234;2023-08-17T18:20:54;99636.06;;;26.39;60.58
78584;BME280;67880;46.082;18.234;2023-08-17T18:21:57;99637.16;;;26.38;60.05
78584;BME280;67880;46.082;18.234;2023-08-17T18:22:50;99636.88;;;26.35;60.38